Overview Statistics Trail Chart Weather Telemetry Raw packets
 

This is the latest recevied weather packets stored in our database for station/object 4S6DRJ-13. If no packets are shown the sender has not sent any weather packets the latest 10 day(s).

<< 177 178 179 180 181 182 183 >>
Time Temp. Humidity Pressure Rain* Wind** Luminosity Snow
1788199828 28.33° C 83% 1009.5 hPa 0 mm 0.45 m/s, 231° 0 W/m² -
1788199767 28.33° C 83% 1009.4 hPa 0 mm 0 m/s 0 W/m² -
1788199706 28.33° C 83% 1009.4 hPa 0 mm 0 m/s 0 W/m² -
1788199645 28.33° C 83% 1009.5 hPa 0 mm 0 m/s 0 W/m² -
1788199584 28.33° C 83% 1009.5 hPa 0 mm 0.89 m/s, 229° 0 W/m² -
1788199523 28.33° C 83% 1009.5 hPa 0 mm 0 m/s 0 W/m² -
1788199462 28.33° C 83% 1009.5 hPa 0 mm 0 m/s 0 W/m² -
1788199401 28.33° C 83% 1009.6 hPa 0 mm 0.45 m/s, 192° 0 W/m² -
1788199340 28.33° C 83% 1009.7 hPa 0 mm 0 m/s 0 W/m² -
1788199278 28.33° C 83% 1009.5 hPa 0 mm 0.89 m/s, 209° 0 W/m² -
1788199218 28.33° C 83% 1009.6 hPa 0 mm 0.45 m/s, 236° 0 W/m² -
1788199157 28.33° C 83% 1009.5 hPa 0 mm 0.45 m/s, 245° 0 W/m² -
1788199096 28.33° C 83% 1009.5 hPa 0 mm 0.89 m/s, 233° 0 W/m² -
1788199035 28.33° C 83% 1009.4 hPa 0 mm 0 m/s 0 W/m² -
1788198974 28.33° C 83% 1009.7 hPa 0 mm 0.45 m/s, 213° 0 W/m² -
1788198913 28.33° C 83% 1009.7 hPa 0 mm 0 m/s 0 W/m² -
1788198852 28.33° C 83% 1009.7 hPa 0 mm 0.89 m/s, 196° 0 W/m² -
1788198791 28.33° C 83% 1009.7 hPa 0 mm 0.45 m/s, 183° 0 W/m² -
1788198729 28.33° C 83% 1009.8 hPa 0 mm 0.45 m/s, 186° 0 W/m² -
1788198669 28.33° C 83% 1009.8 hPa 0 mm 0 m/s 0 W/m² -
1788198608 28.33° C 84% 1009.7 hPa 0 mm 0 m/s 0 W/m² -
1788198547 28.33° C 84% 1009.9 hPa 0 mm 0.45 m/s, 274° 0 W/m² -
1788198487 28.33° C 84% 1009.8 hPa 0 mm 0.45 m/s, 205° 0 W/m² -
1788198425 28.33° C 84% 1009.5 hPa 0 mm 0.45 m/s, 130° 0 W/m² -
1788198364 28.33° C 84% 1009.6 hPa 0 mm 1.79 m/s, 238° 0 W/m² -

* Rain latest hour (hover to see other rain measurements)
** Current wind speed in m/s (hover to see current wind gust speed)